Time;durP1;ratioP1;P1;durP2;ratioP2;P2;SDS_P1;SDS_P2;PMS_P1;PMS_P2;Temp;Humidity;BMP_temperature;BMP_pressure;BME280_temperature;BME280_humidity;BME280_pressure;Samples;Min_cycle;Max_cycle;Signal;HPM_P1;HPM_P2
2023/05/06 00:00:14;;;;;;;5.20;4.10;;;14.50;46.20;;;;;;7371261;19;20054;-72
2023/05/06 00:02:46;;;;;;;6.80;4.07;;;14.50;47.10;;;;;;7371870;19;20109;-71
2023/05/06 00:05:17;;;;;;;6.70;4.55;;;14.40;47.40;;;;;;7370230;19;20478;-72
2023/05/06 00:07:47;;;;;;;4.65;3.22;;;14.50;48.40;;;;;;7392993;19;19999;-72
2023/05/06 00:10:17;;;;;;;3.60;2.90;;;14.40;47.50;;;;;;7369345;19;20006;-72
2023/05/06 00:12:47;;;;;;;3.25;2.80;;;14.30;39.60;;;;;;7370573;19;20428;-72
2023/05/06 00:15:17;;;;;;;3.50;2.90;;;14.30;39.70;;;;;;7370006;19;20143;-72
2023/05/06 00:17:49;;;;;;;4.30;2.97;;;14.40;39.30;;;;;;7370740;19;20470;-73
2023/05/06 00:20:19;;;;;;;3.20;2.50;;;14.30;38.50;;;;;;7369565;19;20018;-73
2023/05/06 00:22:49;;;;;;;5.68;2.92;;;14.30;38.90;;;;;;7392637;19;20027;-73
2023/05/06 00:25:19;;;;;;;3.70;3.10;;;14.20;38.10;;;;;;7368825;19;20002;-72
2023/05/06 00:27:49;;;;;;;4.25;2.88;;;14.20;40.70;;;;;;7369435;19;20074;-72
2023/05/06 00:30:19;;;;;;;4.40;2.83;;;14.10;40.60;;;;;;7368536;19;20028;-72
2023/05/06 00:32:52;;;;;;;5.40;3.60;;;14.10;41.40;;;;;;7370742;19;20015;-73
2023/05/06 00:35:22;;;;;;;3.70;3.40;;;14.20;43.10;;;;;;7368735;19;20019;-72
2023/05/06 00:37:58;;;;;;;7.80;3.28;;;14.10;43.00;;;;;;7393104;19;20110;-72
2023/05/06 00:40:29;;;;;;;5.03;3.53;;;14.00;42.00;;;;;;7368843;19;20019;-72
2023/05/06 00:42:58;;;;;;;6.53;3.90;;;14.00;42.50;;;;;;7369663;19;20010;-72
2023/05/06 00:45:28;;;;;;;4.13;3.45;;;14.00;43.50;;;;;;7367216;19;20486;-72
2023/05/06 00:48:01;;;;;;;6.97;4.03;;;14.00;44.80;;;;;;7369703;19;20010;-73
2023/05/06 00:50:32;;;;;;;6.20;3.65;;;14.10;44.90;;;;;;7368227;19;20486;-73
2023/05/06 00:53:03;;;;;;;4.68;4.18;;;14.00;44.90;;;;;;7385157;19;20022;-72
2023/05/06 00:55:33;;;;;;;5.85;3.50;;;14.00;44.80;;;;;;7390762;19;20018;-72
2023/05/06 00:58:03;;;;;;;4.68;3.65;;;13.80;44.00;;;;;;7366632;19;20018;-73
2023/05/06 01:00:34;;;;;;;6.53;4.05;;;13.80;44.50;;;;;;7366875;19;20509;-73
2023/05/06 01:03:06;;;;;;;4.53;3.50;;;13.80;45.30;;;;;;7370443;19;20015;-73
2023/05/06 01:05:46;;;;;;;7.43;3.95;;;13.70;44.60;;;;;;7367037;19;20021;-73
2023/05/06 01:08:23;;;;;;;5.72;4.30;;;13.70;45.30;;;;;;7370350;19;20339;-73
2023/05/06 01:10:57;;;;;;;5.70;4.47;;;13.70;45.50;;;;;;7388737;19;20014;-73
2023/05/06 01:13:34;;;;;;;5.78;4.40;;;13.80;46.80;;;;;;7368941;19;20011;-72
2023/05/06 01:16:08;;;;;;;7.22;4.90;;;13.80;46.00;;;;;;7367102;19;20030;-73
2023/05/06 01:18:40;;;;;;;7.80;4.63;;;13.80;46.00;;;;;;7369372;19;20035;-72
2023/05/06 01:21:12;;;;;;;5.85;4.30;;;13.80;45.30;;;;;;7367341;19;20014;-72
2023/05/06 01:23:59;;;;;;;6.05;4.47;;;13.70;45.30;;;;;;7369394;19;20021;-72
2023/05/06 01:26:29;;;;;;;4.68;4.10;;;13.70;46.10;;;;;;7366911;19;20052;-73
2023/05/06 01:29:00;;;;;;;7.43;5.18;;;13.80;46.90;;;;;;7390842;19;20015;-72
2023/05/06 01:31:37;;;;;;;6.63;4.55;;;13.70;47.20;;;;;;7368025;19;20011;-72
2023/05/06 01:34:19;;;;;;;5.93;5.07;;;13.70;48.00;;;;;;7368245;19;20502;-72
2023/05/06 01:36:57;;;;;;;5.65;4.68;;;13.60;47.00;;;;;;7367378;19;20007;-72
2023/05/06 01:39:33;;;;;;;6.15;4.82;;;13.70;48.90;;;;;;7366833;19;20013;-72
2023/05/06 01:42:04;;;;;;;6.20;5.22;;;13.70;49.40;;;;;;7368966;19;20015;-72
2023/05/06 01:44:37;;;;;;;6.10;5.05;;;13.70;48.30;;;;;;7368184;19;20034;-72
2023/05/06 01:47:08;;;;;;;9.23;5.15;;;13.60;48.40;;;;;;7366839;19;20513;-72
2023/05/06 01:49:39;;;;;;;6.72;5.25;;;13.60;48.90;;;;;;7388029;19;20013;-73
2023/05/06 01:52:09;;;;;;;8.45;5.57;;;13.60;49.70;;;;;;7368323;19;20382;-71
2023/05/06 01:54:41;;;;;;;6.30;5.57;;;13.60;49.90;;;;;;7366003;19;20014;-72
2023/05/06 01:57:11;;;;;;;8.13;6.32;;;13.70;50.60;;;;;;7366824;19;20011;-72
2023/05/06 01:59:41;;;;;;;7.93;5.82;;;13.60;51.20;;;;;;7366029;19;20019;-71
2023/05/06 02:02:11;;;;;;;9.07;5.88;;;13.60;50.50;;;;;;7369011;19;20014;-72
2023/05/06 02:04:40;;;;;;;13.98;7.55;;;13.60;50.50;;;;;;7389698;19;20363;-72
2023/05/06 02:07:10;;;;;;;9.02;7.85;;;13.70;50.20;;;;;;7365605;19;20039;-72
2023/05/06 02:09:43;;;;;;;9.63;8.23;;;13.60;49.40;;;;;;7368531;19;20010;-72
2023/05/06 02:12:12;;;;;;;9.90;8.35;;;13.70;49.80;;;;;;7376077;19;20014;-72
2023/05/06 02:14:42;;;;;;;12.52;7.82;;;13.60;47.80;;;;;;7375279;19;20002;-73
2023/05/06 02:17:12;;;;;;;12.27;8.57;;;13.70;48.60;;;;;;7374311;19;20006;-72
2023/05/06 02:19:42;;;;;;;9.85;8.75;;;13.70;48.80;;;;;;7394283;19;20020;-72
2023/05/06 02:22:12;;;;;;;12.43;8.70;;;13.70;48.90;;;;;;7372176;19;20540;-73
2023/05/06 02:24:45;;;;;;;10.70;8.77;;;13.60;48.70;;;;;;7373891;19;20504;-72
2023/05/06 02:27:15;;;;;;;10.75;9.05;;;13.70;49.60;;;;;;7374584;19;20014;-72
2023/05/06 02:29:44;;;;;;;12.07;8.90;;;13.60;48.50;;;;;;7371622;19;20032;-72
2023/05/06 02:32:14;;;;;;;9.02;8.13;;;13.50;48.30;;;;;;7375077;19;20721;-71
2023/05/06 02:34:44;;;;;;;10.23;8.07;;;13.60;49.10;;;;;;7395358;19;20011;-71
2023/05/06 02:37:14;;;;;;;11.23;8.55;;;13.60;49.30;;;;;;7373710;19;20468;-71
2023/05/06 02:39:47;;;;;;;11.73;9.18;;;13.60;49.90;;;;;;7371573;19;20014;-72
2023/05/06 02:42:17;;;;;;;11.95;9.27;;;13.50;49.80;;;;;;7374143;19;20074;-72
2023/05/06 02:44:47;;;;;;;11.10;9.70;;;13.50;50.00;;;;;;7372599;19;20015;-72
2023/05/06 02:47:17;;;;;;;13.25;9.93;;;13.50;50.30;;;;;;7373173;19;20013;-72
2023/05/06 02:49:46;;;;;;;11.63;10.10;;;13.50;50.50;;;;;;7393995;19;20042;-72
2023/05/06 02:52:16;;;;;;;10.70;9.30;;;13.60;51.20;;;;;;7373826;19;20035;-72
2023/05/06 02:54:49;;;;;;;12.02;10.52;;;13.50;50.20;;;;;;7372183;19;20015;-72
2023/05/06 02:57:19;;;;;;;11.48;9.73;;;13.50;50.00;;;;;;7373786;19;20010;-73
2023/05/06 02:59:48;;;;;;;13.23;9.70;;;13.50;49.60;;;;;;7372415;19;20641;-72
2023/05/06 03:02:18;;;;;;;12.18;10.30;;;13.50;50.40;;;;;;7374193;19;20042;-72
2023/05/06 03:04:48;;;;;;;12.85;10.50;;;13.60;51.00;;;;;;7394423;19;20038;-72
2023/05/06 03:07:18;;;;;;;13.63;10.77;;;13.50;50.10;;;;;;7372941;19;20011;-72
2023/05/06 03:09:50;;;;;;;12.63;10.50;;;13.50;49.10;;;;;;7370853;19;20007;-72
2023/05/06 03:12:20;;;;;;;15.93;11.05;;;13.50;50.80;;;;;;7374449;19;20006;-72
2023/05/06 03:14:50;;;;;;;13.07;11.00;;;13.40;50.00;;;;;;7372320;19;20010;-73
2023/05/06 03:17:20;;;;;;;10.82;9.73;;;13.50;51.10;;;;;;7371511;19;20466;-73
2023/05/06 03:19:51;;;;;;;12.02;10.25;;;13.50;50.20;;;;;;7392212;19;20014;-72
2023/05/06 03:22:20;;;;;;;11.13;9.93;;;13.50;50.20;;;;;;7371472;19;20367;-72
2023/05/06 03:24:53;;;;;;;16.85;10.60;;;13.50;50.40;;;;;;7370726;19;20495;-72
2023/05/06 03:27:23;;;;;;;12.07;10.60;;;13.50;48.50;;;;;;7373058;19;20089;-72
2023/05/06 03:29:53;;;;;;;12.32;10.10;;;13.50;48.30;;;;;;7369904;19;20380;-72
2023/05/06 03:32:22;;;;;;;11.27;10.18;;;13.50;49.10;;;;;;7373373;19;20000;-73
2023/05/06 03:34:53;;;;;;;11.55;10.23;;;13.40;48.70;;;;;;7392709;19;20031;-73
2023/05/06 03:37:22;;;;;;;10.70;9.23;;;13.40;49.40;;;;;;7372340;19;20074;-73
2023/05/06 03:39:55;;;;;;;11.73;9.90;;;13.50;50.20;;;;;;7370681;19;20011;-73
2023/05/06 03:42:25;;;;;;;15.95;9.38;;;13.40;50.40;;;;;;7373595;19;20011;-72
2023/05/06 03:44:55;;;;;;;11.57;10.25;;;13.40;50.60;;;;;;7370367;19;20022;-72
2023/05/06 03:47:25;;;;;;;11.48;10.27;;;13.30;50.60;;;;;;7372640;19;20017;-72
2023/05/06 03:49:54;;;;;;;14.43;10.65;;;13.20;50.80;;;;;;7392567;19;20042;-73
2023/05/06 03:52:24;;;;;;;13.80;10.75;;;13.20;50.90;;;;;;7372360;19;20007;-73
2023/05/06 03:54:57;;;;;;;13.52;11.07;;;13.10;51.30;;;;;;7369653;19;20062;-72
2023/05/06 03:57:27;;;;;;;15.40;10.52;;;13.00;51.80;;;;;;7370855;19;20006;-73
2023/05/06 03:59:57;;;;;;;16.25;11.38;;;13.00;52.10;;;;;;7370235;19;20018;-73
2023/05/06 04:02:28;;;;;;;14.25;11.02;;;13.00;52.30;;;;;;7372287;19;20014;-73
2023/05/06 04:04:58;;;;;;;12.65;10.13;;;13.00;52.20;;;;;;7391776;19;20026;-73
2023/05/06 04:07:28;;;;;;;12.38;10.70;;;12.90;52.10;;;;;;7372200;19;20010;-72
2023/05/06 04:10:00;;;;;;;12.52;10.95;;;12.90;52.20;;;;;;7368255;19;20021;-73
2023/05/06 04:12:30;;;;;;;14.52;12.10;;;12.90;52.60;;;;;;7371195;19;20006;-72
2023/05/06 04:15:03;;;;;;;13.65;11.05;;;12.90;52.50;;;;;;7369597;19;20085;-71
2023/05/06 04:17:32;;;;;;;13.13;11.23;;;12.90;51.50;;;;;;7371495;19;20403;-72
2023/05/06 04:20:05;;;;;;;13.90;11.25;;;12.90;51.30;;;;;;7377749;19;20462;-71
2023/05/06 04:22:35;;;;;;;14.40;11.18;;;13.00;50.40;;;;;;7393580;19;20498;-72
2023/05/06 04:25:10;;;;;;;13.00;11.20;;;13.00;50.10;;;;;;7368862;19;20032;-72
2023/05/06 04:27:42;;;;;;;13.90;10.93;;;13.00;49.70;;;;;;7368978;19;20348;-71
2023/05/06 04:30:13;;;;;;;14.45;11.10;;;13.30;48.40;;;;;;7369629;19;20384;-72
2023/05/06 04:32:43;;;;;;;12.77;11.07;;;13.20;48.10;;;;;;7368516;19;20014;-72
2023/05/06 04:35:12;;;;;;;20.42;12.68;;;13.30;48.30;;;;;;7369575;19;20015;-73
2023/05/06 04:37:43;;;;;;;13.68;11.50;;;13.60;44.40;;;;;;7391542;19;20485;-73
2023/05/06 04:40:16;;;;;;;17.10;11.80;;;14.00;37.90;;;;;;7368271;19;20103;-72
2023/05/06 04:42:46;;;;;;;14.60;10.90;;;14.80;29.10;;;;;;7369267;19;20011;-71
2023/05/06 04:45:17;;;;;;;10.88;9.77;;;15.60;18.70;;;;;;7368677;19;20017;-72
2023/05/06 04:47:47;;;;;;;11.45;9.00;;;15.90;10.50;;;;;;7369756;19;20013;-73
2023/05/06 04:50:17;;;;;;;10.80;9.32;;;16.30;8.40;;;;;;7367846;19;20459;-73
2023/05/06 04:52:46;;;;;;;10.90;8.55;;;17.20;1.00;;;;;;7392593;19;20018;-73
2023/05/06 04:55:19;;;;;;;9.88;7.90;;;17.90;1.00;;;;;;7368092;19;20006;-72
2023/05/06 04:57:49;;;;;;;9.82;8.48;;;18.40;1.00;;;;;;7368484;19;20466;-73
2023/05/06 05:00:19;;;;;;;11.57;8.82;;;18.90;1.00;;;;;;7369915;19;20014;-73
2023/05/06 05:02:49;;;;;;;10.60;8.80;;;18.80;1.00;;;;;;7370386;19;20002;-72
2023/05/06 05:05:19;;;;;;;8.77;7.43;;;18.30;1.00;;;;;;7367647;19;20043;-72
2023/05/06 05:07:49;;;;;;;9.30;7.25;;;19.20;1.00;;;;;;7391304;19;20014;-72
2023/05/06 05:10:22;;;;;;;7.20;6.50;;;19.90;1.00;;;;;;7366822;19;20015;-72
2023/05/06 05:12:52;;;;;;;6.78;6.00;;;18.90;1.00;;;;;;7368257;19;20526;-72
2023/05/06 05:15:22;;;;;;;10.70;6.20;;;19.70;1.00;;;;;;7367554;19;20006;-73
2023/05/06 05:17:52;;;;;;;8.80;5.57;;;20.00;1.00;;;;;;7368578;19;20010;-73
2023/05/06 05:20:22;;;;;;;7.55;5.07;;;19.80;1.00;;;;;;7368361;19;20443;-72
2023/05/06 05:22:52;;;;;;;9.48;5.97;;;20.30;1.00;;;;;;7390714;19;20077;-72
2023/05/06 05:25:25;;;;;;;7.55;5.60;;;19.70;1.00;;;;;;7367448;19;20002;-73
2023/05/06 05:27:55;;;;;;;7.05;5.40;;;20.20;1.00;;;;;;7367739;19;20460;-73
2023/05/06 05:30:25;;;;;;;9.75;5.60;;;20.70;1.00;;;;;;7367757;19;20002;-73
2023/05/06 05:32:54;;;;;;;5.95;5.35;;;20.40;1.00;;;;;;7367831;19;20033;-72
2023/05/06 05:35:25;;;;;;;6.65;5.75;;;19.50;1.00;;;;;;7367223;19;20007;-71
2023/05/06 05:37:54;;;;;;;7.63;5.60;;;20.00;1.00;;;;;;7390189;19;20106;-72
2023/05/06 05:40:27;;;;;;;6.55;5.43;;;20.30;1.00;;;;;;7367327;19;20011;-72
2023/05/06 05:42:57;;;;;;;7.72;5.35;;;21.20;1.00;;;;;;7367873;19;20037;-72
2023/05/06 05:45:27;;;;;;;6.72;5.13;;;20.40;1.00;;;;;;7372927;19;20014;-73
2023/05/06 05:47:57;;;;;;;7.25;5.00;;;19.00;1.00;;;;;;7375512;19;20007;-73
2023/05/06 05:50:26;;;;;;;8.98;4.85;;;17.50;1.00;;;;;;7373889;19;20011;-72
2023/05/06 05:52:56;;;;;;;8.98;5.05;;;16.70;1.00;;;;;;7395153;19;20018;-74
2023/05/06 05:55:31;;;;;;;4.88;4.20;;;16.40;1.00;;;;;;7374335;19;20013;-73
2023/05/06 05:58:00;;;;;;;8.27;4.63;;;16.50;1.00;;;;;;7375272;19;20462;-74
2023/05/06 06:00:31;;;;;;;5.50;4.95;;;16.20;1.00;;;;;;7373732;19;20601;-73
2023/05/06 06:03:00;;;;;;;6.60;4.72;;;16.10;2.70;;;;;;7376356;19;20014;-73
2023/05/06 06:05:31;;;;;;;8.68;4.57;;;16.00;1.90;;;;;;7373612;19;20006;-73
2023/05/06 06:08:01;;;;;;;6.40;5.03;;;15.30;1.00;;;;;;7397589;19;20006;-73
2023/05/06 06:10:35;;;;;;;7.90;4.47;;;15.70;4.20;;;;;;7373009;19;20010;-73
2023/05/06 06:13:05;;;;;;;6.53;4.10;;;15.50;1.10;;;;;;7372298;19;20010;-74
2023/05/06 06:15:35;;;;;;;5.88;4.20;;;15.50;5.10;;;;;;7372501;19;20042;-73
2023/05/06 06:18:07;;;;;;;5.82;4.88;;;15.70;7.20;;;;;;7375383;19;20014;-74
2023/05/06 06:20:38;;;;;;;5.07;3.97;;;16.10;2.30;;;;;;7372022;19;20022;-72
2023/05/06 06:23:08;;;;;;;5.85;4.55;;;15.80;1.00;;;;;;7375661;19;20038;-72
2023/05/06 06:25:40;;;;;;;6.15;4.28;;;16.20;1.90;;;;;;7394218;19;20011;-73
2023/05/06 06:28:10;;;;;;;6.55;4.53;;;16.60;1.30;;;;;;7373696;19;20495;-73
2023/05/06 06:30:40;;;;;;;7.00;4.28;;;16.20;1.50;;;;;;7373216;19;20083;-74
2023/05/06 06:33:10;;;;;;;5.25;4.25;;;15.80;1.50;;;;;;7374312;19;20010;-74
2023/05/06 06:35:40;;;;;;;4.80;4.30;;;16.20;2.70;;;;;;7372623;19;20007;-74
2023/05/06 06:38:10;;;;;;;6.07;3.97;;;16.50;1.00;;;;;;7375014;19;20011;-74
2023/05/06 06:40:42;;;;;;;6.70;4.95;;;16.10;1.60;;;;;;7393958;19;20014;-74
2023/05/06 06:43:12;;;;;;;6.78;4.82;;;16.10;1.40;;;;;;7374276;19;20049;-74
2023/05/06 06:45:42;;;;;;;6.07;4.90;;;15.90;2.80;;;;;;7370493;19;20046;-73
2023/05/06 06:48:12;;;;;;;5.30;4.63;;;15.80;2.90;;;;;;7374290;19;20007;-73
2023/05/06 06:50:42;;;;;;;7.80;5.15;;;16.10;4.10;;;;;;7370883;19;20017;-74
2023/05/06 06:53:12;;;;;;;5.38;4.57;;;15.80;1.00;;;;;;7372745;19;20015;-74
2023/05/06 06:55:47;;;;;;;11.45;5.32;;;16.10;3.50;;;;;;7392118;19;20018;-74
2023/05/06 06:58:17;;;;;;;6.95;4.93;;;16.30;1.00;;;;;;7373034;19;20013;-73
2023/05/06 07:00:47;;;;;;;6.80;5.22;;;16.70;1.00;;;;;;7370972;19;20476;-73
2023/05/06 07:03:18;;;;;;;7.43;5.22;;;16.50;1.00;;;;;;7373004;19;20013;-73
2023/05/06 07:05:48;;;;;;;6.82;5.03;;;16.90;1.00;;;;;;7370864;19;20018;-73
2023/05/06 07:08:21;;;;;;;6.10;5.03;;;17.20;1.00;;;;;;7371545;19;20024;-73
2023/05/06 07:10:54;;;;;;;6.05;4.53;;;17.10;1.00;;;;;;7391929;19;20078;-72
2023/05/06 07:13:24;;;;;;;6.72;4.50;;;17.00;1.00;;;;;;7371006;19;20007;-73
2023/05/06 07:15:54;;;;;;;6.53;4.60;;;17.40;1.00;;;;;;7371503;19;20011;-72
2023/05/06 07:18:24;;;;;;;5.63;4.90;;;17.00;1.00;;;;;;7373434;19;20033;-73
2023/05/06 07:20:54;;;;;;;6.03;4.32;;;17.90;1.00;;;;;;7370445;19;20036;-72
2023/05/06 07:23:23;;;;;;;5.18;4.43;;;17.50;1.00;;;;;;7372768;19;20014;-72
2023/05/06 07:25:56;;;;;;;7.70;4.50;;;17.50;1.00;;;;;;7392578;19;20020;-73
2023/05/06 07:28:26;;;;;;;6.97;4.25;;;18.20;1.00;;;;;;7372920;19;20115;-73
2023/05/06 07:30:56;;;;;;;5.85;4.28;;;17.60;1.00;;;;;;7370817;19;20098;-73
2023/05/06 07:33:26;;;;;;;5.75;4.10;;;17.70;1.00;;;;;;7372000;19;20481;-73
2023/05/06 07:35:56;;;;;;;4.07;3.47;;;16.90;1.00;;;;;;7371211;19;20041;-73
2023/05/06 07:38:26;;;;;;;5.32;4.82;;;16.70;1.00;;;;;;7371953;19;20034;-73
2023/05/06 07:40:59;;;;;;;6.97;4.03;;;16.50;1.00;;;;;;7390629;19;20010;-73
2023/05/06 07:43:29;;;;;;;4.93;4.40;;;16.60;1.00;;;;;;7372413;19;20522;-73
2023/05/06 07:46:01;;;;;;;4.40;3.90;;;16.80;1.00;;;;;;7369550;19;20016;-73
2023/05/06 07:48:31;;;;;;;5.25;4.50;;;17.10;1.00;;;;;;7372205;19;20138;-72
2023/05/06 07:51:02;;;;;;;6.50;4.13;;;17.40;1.00;;;;;;7369645;19;20035;-72
2023/05/06 07:53:32;;;;;;;6.32;4.85;;;17.40;1.00;;;;;;7369736;19;20014;-73
2023/05/06 07:56:04;;;;;;;4.45;3.60;;;17.60;1.00;;;;;;7386264;19;20010;-72
2023/05/06 07:58:34;;;;;;;5.60;4.30;;;17.20;1.00;;;;;;7392432;19;20033;-73
2023/05/06 08:01:05;;;;;;;8.85;3.63;;;17.50;1.00;;;;;;7369436;19;20485;-73
2023/05/06 08:03:34;;;;;;;3.20;2.90;;;17.80;1.00;;;;;;7371238;19;20018;-73
2023/05/06 08:06:05;;;;;;;5.47;3.08;;;17.80;1.00;;;;;;7370007;19;19999;-73
2023/05/06 08:08:35;;;;;;;4.90;3.00;;;17.70;1.00;;;;;;7369322;19;20420;-73
2023/05/06 08:11:08;;;;;;;3.35;3.05;;;18.00;1.00;;;;;;7368110;19;20466;-73
2023/05/06 08:13:37;;;;;;;6.93;3.35;;;18.00;1.00;;;;;;7391048;19;20007;-73
2023/05/06 08:16:08;;;;;;;4.85;3.70;;;18.00;1.00;;;;;;7367267;19;20582;-73
2023/05/06 08:18:38;;;;;;;3.97;3.00;;;17.80;1.00;;;;;;7368963;19;20015;-71
2023/05/06 08:21:08;;;;;;;4.65;2.72;;;17.70;1.00;;;;;;7368572;19;20015;-73
2023/05/06 08:23:38;;;;;;;5.75;2.95;;;18.10;1.00;;;;;;7370493;19;20006;-73
2023/05/06 08:26:10;;;;;;;4.10;2.50;;;18.10;1.00;;;;;;7368805;19;20110;-73
2023/05/06 08:28:40;;;;;;;5.35;2.67;;;18.60;1.00;;;;;;7392386;19;20512;-73
2023/05/06 08:31:14;;;;;;;3.80;2.67;;;18.60;1.00;;;;;;7368624;19;20014;-73
2023/05/06 08:33:44;;;;;;;5.78;2.58;;;18.30;1.00;;;;;;7367463;19;20449;-73
2023/05/06 08:36:14;;;;;;;2.78;2.10;;;18.80;1.00;;;;;;7369071;19;20013;-73
2023/05/06 08:38:49;;;;;;;2.67;1.77;;;18.90;1.00;;;;;;7369215;19;20017;-73
2023/05/06 08:41:22;;;;;;;2.80;2.13;;;19.30;1.00;;;;;;7369834;19;20011;-73
2023/05/06 08:43:54;;;;;;;2.33;2.10;;;19.40;1.00;;;;;;7390624;19;20025;-72
2023/05/06 08:46:26;;;;;;;4.15;2.10;;;18.70;1.00;;;;;;7367461;19;20010;-73
2023/05/06 08:48:56;;;;;;;1.73;1.50;;;18.20;1.00;;;;;;7368828;19;20014;-73
2023/05/06 08:51:30;;;;;;;3.20;1.70;;;18.50;1.00;;;;;;7367781;19;20021;-73
2023/05/06 08:54:03;;;;;;;3.53;1.70;;;19.80;1.00;;;;;;7367536;19;20011;-73
2023/05/06 08:56:37;;;;;;;2.72;1.88;;;20.30;1.00;;;;;;7366609;19;20017;-73
2023/05/06 08:59:08;;;;;;;3.08;2.10;;;19.40;1.00;;;;;;7368933;19;20064;-72
2023/05/06 09:01:38;;;;;;;4.30;2.40;;;18.30;1.00;;;;;;7391290;19;20025;-73
2023/05/06 09:04:09;;;;;;;2.53;2.33;;;18.60;1.00;;;;;;7368142;19;20007;-72
2023/05/06 09:06:39;;;;;;;4.00;1.80;;;19.20;1.00;;;;;;7368493;19;20021;-72
2023/05/06 09:09:09;;;;;;;1.60;1.50;;;18.80;1.00;;;;;;7367864;19;20502;-73
2023/05/06 09:11:41;;;;;;;3.75;1.67;;;19.10;1.00;;;;;;7369870;19;20017;-72
2023/05/06 09:14:13;;;;;;;4.10;1.45;;;18.90;1.00;;;;;;7366400;19;20376;-71
2023/05/06 09:16:45;;;;;;;2.08;1.20;;;19.00;1.00;;;;;;7390897;19;20406;-73
2023/05/06 09:19:16;;;;;;;1.88;1.40;;;19.10;1.00;;;;;;7365048;19;20070;-71
2023/05/06 09:21:48;;;;;;;1.60;1.17;;;18.60;1.00;;;;;;7369907;19;20014;-72
2023/05/06 09:24:18;;;;;;;2.15;1.40;;;19.10;1.00;;;;;;7367725;19;20014;-72
2023/05/06 09:26:54;;;;;;;2.67;1.45;;;18.80;1.00;;;;;;7367379;19;20018;-73
2023/05/06 09:29:24;;;;;;;2.35;1.60;;;19.20;1.00;;;;;;7368005;19;20018;-72
2023/05/06 09:31:55;;;;;;;2.58;1.60;;;18.50;1.00;;;;;;7390372;19;20023;-71
2023/05/06 09:34:25;;;;;;;2.10;1.60;;;19.30;1.00;;;;;;7364774;19;20342;-73
2023/05/06 09:36:56;;;;;;;2.80;1.75;;;19.80;1.00;;;;;;7366717;19;20094;-72
2023/05/06 09:39:28;;;;;;;2.38;1.40;;;20.10;1.00;;;;;;7366274;19;20015;-71
2023/05/06 09:42:01;;;;;;;3.80;1.60;;;20.20;1.00;;;;;;7368116;19;20408;-73
2023/05/06 09:44:31;;;;;;;2.67;1.70;;;19.60;1.00;;;;;;7365639;19;20187;-73
2023/05/06 09:47:01;;;;;;;2.38;1.48;;;19.20;1.00;;;;;;7390140;19;20036;-72
2023/05/06 09:49:31;;;;;;;2.25;1.60;;;20.00;1.00;;;;;;7365680;19;20010;-71
2023/05/06 09:52:02;;;;;;;1.60;1.40;;;20.60;1.00;;;;;;7365445;19;20014;-73
2023/05/06 09:54:33;;;;;;;1.88;1.42;;;20.30;1.00;;;;;;7364154;19;20014;-72
2023/05/06 09:57:06;;;;;;;1.83;1.38;;;19.80;1.00;;;;;;7366461;19;20011;-71
2023/05/06 09:59:38;;;;;;;1.75;1.15;;;19.80;1.00;;;;;;7366580;19;20078;-72
2023/05/06 10:02:08;;;;;;;1.90;1.23;;;20.10;1.00;;;;;;7367796;19;20010;-73
2023/05/06 10:04:41;;;;;;;1.80;0.95;;;20.10;1.00;;;;;;7385533;19;20035;-72
2023/05/06 10:07:13;;;;;;;2.03;0.90;;;20.30;1.00;;;;;;7365796;19;20014;-72
2023/05/06 10:09:43;;;;;;;1.48;1.27;;;20.10;1.00;;;;;;7364824;19;20014;-73
2023/05/06 10:12:16;;;;;;;1.70;1.30;;;19.90;1.00;;;;;;7366251;19;20006;-72
2023/05/06 10:14:46;;;;;;;2.07;1.30;;;20.00;1.00;;;;;;7363886;19;20014;-72
2023/05/06 10:17:19;;;;;;;1.85;1.42;;;19.80;1.00;;;;;;7367130;19;20010;-72
2023/05/06 10:19:51;;;;;;;2.97;1.25;;;18.90;1.00;;;;;;7387822;19;20019;-72
2023/05/06 10:22:32;;;;;;;2.22;1.80;;;19.80;1.00;;;;;;7365447;19;20689;-73
2023/05/06 10:25:23;;;;;;;2.20;1.33;;;19.40;1.00;;;;;;7363478;19;20512;-72
2023/05/06 10:27:56;;;;;;;3.22;1.48;;;20.10;1.00;;;;;;7364841;19;20078;-73
2023/05/06 10:30:28;;;;;;;2.10;1.50;;;20.60;1.00;;;;;;7368909;19;20366;-72
2023/05/06 10:33:01;;;;;;;1.50;1.40;;;20.20;1.00;;;;;;7373700;19;20021;-72
2023/05/06 10:35:39;;;;;;;1.67;1.40;;;20.30;1.00;;;;;;7371101;19;20010;-73
2023/05/06 10:38:26;;;;;;;2.45;1.40;;;20.50;1.00;;;;;;7374616;19;21763;-72
2023/05/06 10:40:57;;;;;;;1.92;1.13;;;20.70;1.00;;;;;;7393520;19;20130;-73
2023/05/06 10:43:34;;;;;;;2.25;1.25;;;20.80;1.00;;;;;;7372698;19;20014;-73
2023/05/06 10:46:07;;;;;;;3.13;1.38;;;20.40;1.00;;;;;;7371644;19;20014;-72
2023/05/06 10:48:39;;;;;;;2.05;1.13;;;20.40;1.00;;;;;;7371986;19;20018;-72
2023/05/06 10:51:26;;;;;;;1.55;1.10;;;20.30;1.00;;;;;;7371805;19;20050;-72
2023/05/06 10:54:01;;;;;;;1.65;1.15;;;20.40;1.00;;;;;;7373599;19;20019;-72
2023/05/06 10:56:34;;;;;;;1.38;1.10;;;20.50;1.00;;;;;;7372305;19;20006;-72
2023/05/06 10:59:10;;;;;;;1.88;1.10;;;20.70;1.00;;;;;;7373050;19;20010;-72
2023/05/06 11:01:42;;;;;;;1.70;1.15;;;20.20;1.00;;;;;;7394702;19;20011;-73
2023/05/06 11:04:14;;;;;;;1.08;0.98;;;20.40;1.00;;;;;;7371450;19;20007;-72
2023/05/06 11:06:46;;;;;;;1.20;1.05;;;20.20;1.00;;;;;;7371107;19;20021;-72
2023/05/06 11:09:20;;;;;;;1.38;1.02;;;19.80;1.00;;;;;;7371951;19;20010;-72
2023/05/06 11:12:00;;;;;;;1.60;1.08;;;19.80;1.00;;;;;;7372673;19;20481;-72
2023/05/06 11:14:35;;;;;;;5.60;1.30;;;19.60;1.00;;;;;;7370929;19;20031;-72
2023/05/06 11:17:06;;;;;;;3.65;1.20;;;19.60;1.00;;;;;;7372627;19;20014;-73
2023/05/06 11:19:37;;;;;;;3.60;1.20;;;20.40;1.00;;;;;;7392528;19;20418;-73
2023/05/06 11:22:08;;;;;;;1.70;1.20;;;21.20;1.00;;;;;;7371493;19;20038;-71
2023/05/06 11:24:42;;;;;;;2.22;1.55;;;21.60;1.00;;;;;;7371407;19;20357;-74
2023/05/06 11:27:12;;;;;;;1.83;1.20;;;21.20;1.00;;;;;;7372372;19;20439;-74
2023/05/06 11:29:45;;;;;;;1.67;1.50;;;21.30;1.00;;;;;;7370890;19;20006;-73
2023/05/06 11:32:24;;;;;;;1.90;1.30;;;21.00;1.00;;;;;;7372866;19;20010;-72
2023/05/06 11:34:57;;;;;;;2.50;1.48;;;20.50;1.00;;;;;;7391343;19;20019;-72
2023/05/06 11:37:27;;;;;;;3.53;2.35;;;20.20;1.00;;;;;;7373253;19;20014;-73
2023/05/06 11:39:57;;;;;;;4.03;1.92;;;19.70;1.00;;;;;;7369983;19;20067;-72
2023/05/06 11:42:29;;;;;;;2.15;1.90;;;19.80;1.00;;;;;;7369683;19;20462;-72
2023/05/06 11:45:03;;;;;;;2.78;1.80;;;19.60;1.00;;;;;;7366729;19;20014;-72
2023/05/06 11:47:33;;;;;;;;;;;19.50;1.00;;;;;;7373514;19;20010;-73
2023/05/06 11:50:06;;;;;;;4.25;1.90;;;19.70;1.00;;;;;;7372739;19;20333;-72
2023/05/06 11:52:37;;;;;;;3.22;1.60;;;20.40;1.00;;;;;;7393782;19;20672;-73
2023/05/06 11:55:11;;;;;;;2.10;1.90;;;20.40;1.00;;;;;;7368337;19;20028;-73
2023/05/06 11:57:46;;;;;;;2.70;1.65;;;20.40;1.00;;;;;;7370621;19;20002;-73
2023/05/06 12:00:19;;;;;;;2.22;1.70;;;20.80;1.00;;;;;;7369527;19;20077;-72
2023/05/06 12:02:50;;;;;;;2.35;2.00;;;21.10;1.00;;;;;;7371070;19;20007;-73
2023/05/06 12:05:24;;;;;;;4.40;1.90;;;20.90;1.00;;;;;;7368973;19;20338;-73
2023/05/06 12:07:54;;;;;;;;;;;20.70;1.00;;;;;;7393721;19;20035;-73
2023/05/06 12:10:23;;;;;;;4.32;1.60;;;20.70;1.00;;;;;;7368723;19;19993;-73
2023/05/06 12:12:53;;;;;;;1.52;1.40;;;20.80;1.00;;;;;;7370490;19;20006;-72
2023/05/06 12:15:26;;;;;;;2.55;1.83;;;21.30;1.00;;;;;;7367478;19;20010;-73
2023/05/06 12:17:56;;;;;;;3.65;1.70;;;21.10;1.00;;;;;;7370964;19;20010;-73
2023/05/06 12:20:26;;;;;;;3.13;1.85;;;21.20;1.00;;;;;;7368788;19;20029;-72
2023/05/06 12:23:07;;;;;;;4.30;1.63;;;20.80;1.00;;;;;;7392776;19;20038;-72
2023/05/06 12:25:37;;;;;;;1.95;1.40;;;21.40;1.00;;;;;;7367979;19;20014;-72
2023/05/06 12:28:15;;;;;;;2.72;1.40;;;21.50;1.00;;;;;;7369433;19;20015;-73
2023/05/06 12:30:48;;;;;;;3.03;1.63;;;21.30;1.00;;;;;;7369016;19;20486;-72
2023/05/06 12:33:18;;;;;;;2.50;1.55;;;21.40;1.00;;;;;;7370894;19;20018;-72
2023/05/06 12:35:50;;;;;;;3.85;1.35;;;21.40;1.00;;;;;;7368858;19;20337;-73
2023/05/06 12:38:20;;;;;;;1.67;1.58;;;21.40;1.00;;;;;;7369297;19;20014;-73
2023/05/06 12:40:55;;;;;;;1.85;1.40;;;21.10;1.00;;;;;;7389523;19;20034;-73
2023/05/06 12:43:31;;;;;;;2.72;1.65;;;21.10;1.00;;;;;;7368970;19;20027;-72
2023/05/06 12:46:11;;;;;;;2.10;1.45;;;21.00;1.00;;;;;;7367204;19;20046;-73
2023/05/06 12:48:57;;;;;;;3.25;1.48;;;20.50;1.00;;;;;;7369716;19;20355;-72
2023/05/06 12:51:27;;;;;;;2.38;1.50;;;20.60;1.00;;;;;;7368334;19;20037;-75
2023/05/06 12:53:57;;;;;;;2.20;1.40;;;20.60;1.00;;;;;;7366119;19;20007;-72
2023/05/06 12:56:27;;;;;;;1.90;1.33;;;20.70;1.00;;;;;;7367473;19;20014;-73
2023/05/06 12:59:01;;;;;;;2.75;1.65;;;20.60;1.00;;;;;;7390316;19;20343;-73
2023/05/06 13:01:34;;;;;;;2.60;1.60;;;20.70;1.00;;;;;;7369046;19;20017;-72
2023/05/06 13:04:04;;;;;;;2.90;1.60;;;20.80;1.00;;;;;;7366650;19;20021;-72
2023/05/06 13:06:34;;;;;;;2.13;1.30;;;20.70;1.00;;;;;;7368478;19;20010;-72
2023/05/06 13:09:04;;;;;;;1.98;1.10;;;20.90;1.00;;;;;;7367487;19;20018;-73
2023/05/06 13:11:34;;;;;;;1.40;1.10;;;21.00;1.00;;;;;;7368123;19;20011;-73